createdAt,value
2022-10-10T00:00:50.422Z,16.80
2022-10-10T00:03:20.203Z,17.60
2022-10-10T00:05:48.351Z,15.23
2022-10-10T00:08:15.453Z,18.17
2022-10-10T00:10:42.432Z,16.58
2022-10-10T00:13:09.722Z,18.00
2022-10-10T00:15:36.807Z,15.32
2022-10-10T00:18:04.505Z,15.10
2022-10-10T00:20:32.012Z,16.98
2022-10-10T00:22:59.217Z,15.98
2022-10-10T00:25:28.192Z,15.68
2022-10-10T00:27:55.803Z,17.65
2022-10-10T00:30:22.918Z,16.35
2022-10-10T00:32:50.255Z,17.55
2022-10-10T00:35:17.434Z,17.83
2022-10-10T00:37:44.469Z,17.05
2022-10-10T00:40:12.637Z,16.92
2022-10-10T00:42:39.675Z,16.33
2022-10-10T00:45:36.065Z,17.35
2022-10-10T00:48:05.484Z,17.73
2022-10-10T00:50:35.557Z,16.27
2022-10-10T00:53:05.877Z,15.38
2022-10-10T00:58:01.649Z,16.00
2022-10-10T01:00:28.929Z,15.50
2022-10-10T01:02:56.202Z,15.45
2022-10-10T01:05:23.579Z,16.30
2022-10-10T01:07:50.957Z,14.85
2022-10-10T01:10:20.862Z,15.63
2022-10-10T01:12:48.034Z,15.35
2022-10-10T01:15:38.399Z,14.68
2022-10-10T01:18:23.800Z,15.85
2022-10-10T01:20:58.502Z,16.75
2022-10-10T01:23:50.495Z,16.55
2022-10-10T01:26:29.443Z,16.85
2022-10-10T01:29:14.854Z,17.42
2022-10-10T01:31:47.001Z,16.52
2022-10-10T01:34:14.173Z,17.17
2022-10-10T01:36:48.291Z,18.58
2022-10-10T01:39:32.103Z,18.27
2022-10-10T01:42:09.895Z,17.00
2022-10-10T01:44:36.916Z,17.15
2022-10-10T01:47:04.156Z,17.23
2022-10-10T01:49:33.012Z,16.73
2022-10-10T01:52:17.268Z,16.05
2022-10-10T01:54:47.402Z,16.33
2022-10-10T01:57:24.856Z,16.30
2022-10-10T02:00:01.192Z,15.57
2022-10-10T02:02:50.645Z,16.45
2022-10-10T02:05:36.437Z,15.80
2022-10-10T02:08:14.789Z,17.05
2022-10-10T02:10:49.092Z,15.80
2022-10-10T02:13:18.388Z,16.15
2022-10-10T02:15:48.854Z,16.48
2022-10-10T02:18:20.671Z,15.88
2022-10-10T02:20:49.144Z,17.33
2022-10-10T02:23:20.212Z,14.57
2022-10-10T02:25:52.987Z,15.07
2022-10-10T02:28:20.208Z,14.65
2022-10-10T02:30:52.562Z,15.98
2022-10-10T02:33:31.192Z,16.63
2022-10-10T02:35:59.727Z,19.40
2022-10-10T02:38:29.071Z,16.98
2022-10-10T02:40:58.520Z,19.02
2022-10-10T02:43:26.372Z,18.83
2022-10-10T02:45:53.452Z,17.48
2022-10-10T02:48:20.647Z,18.88
2022-10-10T02:50:47.804Z,17.70
2022-10-10T02:53:14.837Z,17.23
2022-10-10T02:55:41.922Z,17.02
2022-10-10T02:58:08.993Z,16.67
2022-10-10T03:00:36.122Z,19.60
2022-10-10T03:03:03.291Z,17.75
2022-10-10T03:05:30.806Z,16.35
2022-10-10T03:07:57.904Z,17.05
2022-10-10T03:10:25.386Z,17.20
2022-10-10T03:12:52.809Z,17.40
2022-10-10T03:15:20.353Z,17.05
2022-10-10T03:17:47.555Z,17.20
2022-10-10T03:20:14.797Z,16.73
2022-10-10T03:22:42.005Z,16.35
2022-10-10T03:25:09.287Z,17.80
2022-10-10T03:27:36.428Z,17.92
2022-10-10T03:30:04.740Z,17.50
2022-10-10T03:32:31.891Z,15.20
2022-10-10T03:34:58.947Z,16.58
2022-10-10T03:37:25.856Z,16.00
2022-10-10T03:39:52.918Z,16.58
2022-10-10T03:42:19.920Z,15.85
2022-10-10T03:44:47.154Z,14.90
2022-10-10T03:47:14.422Z,14.38
2022-10-10T03:49:41.593Z,15.55
2022-10-10T03:52:08.680Z,15.00
2022-10-10T03:54:35.832Z,15.48
2022-10-10T03:57:02.982Z,16.23
2022-10-10T03:59:30.122Z,14.20
2022-10-10T04:01:57.197Z,14.18
2022-10-10T04:04:24.922Z,15.60
2022-10-10T04:06:52.252Z,13.63
2022-10-10T04:09:19.408Z,14.98
2022-10-10T04:11:46.483Z,14.48
2022-10-10T04:14:13.607Z,15.15
2022-10-10T04:16:40.831Z,14.73
2022-10-10T04:19:07.881Z,14.85
2022-10-10T04:21:35.351Z,15.30
2022-10-10T04:24:02.754Z,14.07
2022-10-10T04:26:29.863Z,14.18
2022-10-10T04:28:58.114Z,14.80
2022-10-10T04:31:25.196Z,14.55
2022-10-10T04:33:52.872Z,13.45
2022-10-10T04:36:20.136Z,14.88
2022-10-10T04:38:47.531Z,13.85
2022-10-10T04:41:14.801Z,15.35
2022-10-10T04:43:42.233Z,13.80
2022-10-10T04:46:09.401Z,14.98
2022-10-10T04:48:37.533Z,13.68
2022-10-10T04:51:06.033Z,13.93
2022-10-10T04:53:33.341Z,14.35
2022-10-10T04:56:00.485Z,16.42
2022-10-10T04:58:27.587Z,15.02
2022-10-10T05:00:55.906Z,13.98
2022-10-10T05:03:24.442Z,13.82
2022-10-10T05:05:51.819Z,13.60
2022-10-10T05:08:19.850Z,13.05
2022-10-10T05:10:47.954Z,13.13
2022-10-10T05:13:16.271Z,12.85
2022-10-10T05:15:43.911Z,13.02
2022-10-10T05:18:11.304Z,12.10
2022-10-10T05:20:38.362Z,12.52
2022-10-10T05:23:05.635Z,12.98
2022-10-10T05:25:32.936Z,12.55
2022-10-10T05:28:00.093Z,13.07
2022-10-10T05:30:27.353Z,12.35
2022-10-10T05:32:54.651Z,11.88
2022-10-10T05:35:21.973Z,13.23
2022-10-10T05:37:49.066Z,13.63
2022-10-10T05:40:16.205Z,11.48
2022-10-10T05:42:43.494Z,12.57
2022-10-10T05:45:11.037Z,12.50
2022-10-10T05:47:38.354Z,13.18
2022-10-10T05:50:06.509Z,12.57
2022-10-10T05:52:35.605Z,12.18
2022-10-10T05:55:02.641Z,13.20
2022-10-10T05:57:29.803Z,12.30
2022-10-10T05:59:56.813Z,12.75
2022-10-10T06:02:24.062Z,12.52
2022-10-10T06:04:51.184Z,13.27
2022-10-10T06:07:18.302Z,13.00
2022-10-10T06:09:45.556Z,14.20
2022-10-10T06:12:12.774Z,12.52
2022-10-10T06:14:40.141Z,13.02
2022-10-10T06:17:07.765Z,13.10
2022-10-10T06:19:34.962Z,12.85
2022-10-10T06:22:02.365Z,12.93
2022-10-10T06:24:30.116Z,12.52
2022-10-10T06:26:57.224Z,13.32
2022-10-10T06:29:24.282Z,12.18
2022-10-10T06:31:51.572Z,11.98
2022-10-10T06:34:18.923Z,12.90
2022-10-10T06:36:46.125Z,12.45
2022-10-10T06:39:13.145Z,12.75
2022-10-10T06:41:40.242Z,11.98
2022-10-10T06:46:38.023Z,11.93
2022-10-10T06:49:05.504Z,12.85
2022-10-10T06:51:32.948Z,12.65
2022-10-10T06:54:00.048Z,11.10
2022-10-10T06:56:28.127Z,12.38
2022-10-10T06:58:55.932Z,11.98
2022-10-10T07:01:25.254Z,11.40
2022-10-10T07:03:52.585Z,11.73
2022-10-10T07:06:19.806Z,11.50
2022-10-10T07:08:47.082Z,10.88
2022-10-10T07:11:14.502Z,11.63
2022-10-10T07:13:41.872Z,11.45
2022-10-10T07:16:10.294Z,10.32
2022-10-10T07:18:37.951Z,11.23
2022-10-10T07:21:05.923Z,11.05
2022-10-10T07:23:33.210Z,10.55
2022-10-10T07:26:06.417Z,10.63
2022-10-10T07:28:34.023Z,10.23
2022-10-10T07:31:04.475Z,10.02
2022-10-10T07:36:00.085Z,9.57
2022-10-10T07:38:27.293Z,8.88
2022-10-10T07:40:54.453Z,9.10
2022-10-10T07:43:21.812Z,8.13
2022-10-10T07:45:49.254Z,8.20
2022-10-10T07:48:16.869Z,8.15
2022-10-10T07:50:45.081Z,7.68
2022-10-10T07:53:12.863Z,7.95
2022-10-10T07:55:43.881Z,7.57
2022-10-10T07:58:12.231Z,7.28
2022-10-10T08:00:43.021Z,8.00
2022-10-10T08:03:12.171Z,6.70
2022-10-10T08:05:44.398Z,6.30
2022-10-10T08:08:11.783Z,6.43
2022-10-10T08:10:44.018Z,6.65
2022-10-10T08:13:11.182Z,5.97
2022-10-10T08:15:42.042Z,6.53
2022-10-10T08:18:09.317Z,6.13
2022-10-10T08:20:36.562Z,6.40
2022-10-10T08:23:03.845Z,6.50
2022-10-10T08:25:30.993Z,6.72
2022-10-10T08:27:58.215Z,6.07
2022-10-10T08:30:25.503Z,6.07
2022-10-10T08:32:52.957Z,8.15
2022-10-10T08:35:20.476Z,12.85
2022-10-10T08:37:47.682Z,8.10
2022-10-10T08:40:21.126Z,9.27
2022-10-10T08:42:53.295Z,7.13
2022-10-10T08:45:24.768Z,6.22
2022-10-10T08:47:55.362Z,6.60
2022-10-10T08:50:28.133Z,6.47
2022-10-10T08:53:03.688Z,5.72
2022-10-10T08:55:34.032Z,7.90
2022-10-10T09:00:46.858Z,5.93
2022-10-10T09:03:30.874Z,6.30
2022-10-10T09:06:33.276Z,5.50
2022-10-10T09:09:28.206Z,5.82
2022-10-10T09:12:13.413Z,5.85
2022-10-10T09:14:46.115Z,6.05
2022-10-10T09:17:22.163Z,5.85
2022-10-10T09:20:24.667Z,5.35
2022-10-10T09:23:03.650Z,5.57
2022-10-10T09:25:57.931Z,6.95
2022-10-10T09:28:30.670Z,7.20
2022-10-10T09:31:00.313Z,6.57
2022-10-10T09:33:36.240Z,7.75
2022-10-10T09:36:09.969Z,5.72
2022-10-10T09:38:48.183Z,6.13
2022-10-10T09:41:25.897Z,6.65
2022-10-10T09:44:03.209Z,5.85
2022-10-10T09:46:30.438Z,6.38
2022-10-10T09:48:58.136Z,5.53
2022-10-10T09:51:25.413Z,5.75
2022-10-10T09:53:52.522Z,6.03
2022-10-10T09:56:29.521Z,8.30
2022-10-10T09:58:57.162Z,9.60
2022-10-10T10:01:29.155Z,6.15
2022-10-10T10:04:28.990Z,6.40
2022-10-10T10:07:06.786Z,6.40
2022-10-10T10:09:34.171Z,6.75
2022-10-10T10:12:01.646Z,6.45
2022-10-10T10:14:35.358Z,5.88
2022-10-10T10:17:25.042Z,6.75
2022-10-10T10:19:52.809Z,6.88
2022-10-10T10:22:37.786Z,6.78
2022-10-10T10:25:31.712Z,6.30
2022-10-10T10:28:11.344Z,6.00
2022-10-10T10:30:40.166Z,5.50
2022-10-10T10:37:05.364Z,6.35
2022-10-10T10:39:51.381Z,5.82
2022-10-10T10:42:30.521Z,7.20
2022-10-10T10:45:26.969Z,6.40
2022-10-10T10:48:32.658Z,5.70
2022-10-10T10:51:25.858Z,5.72
2022-10-10T10:54:26.619Z,4.97
2022-10-10T10:57:06.214Z,5.25
2022-10-10T11:00:25.614Z,5.07
2022-10-10T11:02:59.638Z,5.40
2022-10-10T11:05:55.806Z,4.70
2022-10-10T11:09:44.913Z,5.63
2022-10-10T11:12:10.438Z,5.30
2022-10-10T11:14:49.950Z,5.32
2022-10-10T11:17:38.967Z,5.07
2022-10-10T11:20:25.633Z,62.75
2022-10-10T11:23:18.929Z,5.35
2022-10-10T11:26:18.233Z,4.93
2022-10-10T11:28:54.888Z,5.60
2022-10-10T11:31:28.769Z,4.43
2022-10-10T11:34:07.427Z,6.43
2022-10-10T11:36:39.546Z,5.00
2022-10-10T11:39:30.788Z,4.95
2022-10-10T11:42:03.148Z,5.15
2022-10-10T11:45:00.038Z,4.93
2022-10-10T11:47:36.154Z,4.72
2022-10-10T11:50:14.032Z,4.90
2022-10-10T11:52:52.259Z,4.65
2022-10-10T11:55:37.618Z,5.05
2022-10-10T11:58:07.493Z,4.65
2022-10-10T12:00:40.939Z,5.68
2022-10-10T12:03:09.223Z,5.00
2022-10-10T12:05:40.088Z,5.10
2022-10-10T12:08:25.173Z,4.32
2022-10-10T12:11:18.958Z,4.80
2022-10-10T12:13:49.353Z,4.57
2022-10-10T12:18:51.342Z,4.05
2022-10-10T12:21:22.940Z,4.30
2022-10-10T12:24:01.325Z,4.47
2022-10-10T12:26:57.136Z,4.28
2022-10-10T12:30:02.684Z,4.47
2022-10-10T12:32:55.111Z,4.20
2022-10-10T12:35:31.948Z,4.30
2022-10-10T12:38:10.652Z,3.97
2022-10-10T12:41:08.803Z,4.70
2022-10-10T12:44:11.001Z,4.70
2022-10-10T12:46:38.159Z,4.35
2022-10-10T12:49:24.832Z,4.95
2022-10-10T12:52:05.515Z,4.47
2022-10-10T12:54:39.330Z,3.95
2022-10-10T12:57:14.379Z,4.80
2022-10-10T12:59:42.038Z,4.13
2022-10-10T13:02:28.269Z,4.15
2022-10-10T13:04:59.593Z,4.10
2022-10-10T13:07:27.492Z,4.05
2022-10-10T13:10:03.664Z,4.05
2022-10-10T13:12:32.642Z,4.50
2022-10-10T13:14:59.873Z,4.35
2022-10-10T13:17:41.560Z,4.28
2022-10-10T13:20:43.883Z,4.30
2022-10-10T13:23:14.836Z,4.30
2022-10-10T13:25:46.342Z,4.13
2022-10-10T13:28:19.369Z,4.80
2022-10-10T13:30:47.554Z,4.45
2022-10-10T13:33:18.211Z,4.50
2022-10-10T13:35:47.675Z,5.47
2022-10-10T13:38:16.480Z,4.72
2022-10-10T13:40:44.829Z,5.00
2022-10-10T13:43:14.753Z,4.70
2022-10-10T13:45:47.825Z,4.70
2022-10-10T13:48:35.854Z,4.60
2022-10-10T13:51:09.110Z,6.40
2022-10-10T13:53:55.843Z,4.28
2022-10-10T13:56:31.701Z,4.80
2022-10-10T13:59:01.733Z,4.65
2022-10-10T14:01:33.227Z,4.72
2022-10-10T14:04:17.859Z,5.20
2022-10-10T14:06:55.551Z,8.77
2022-10-10T14:09:31.005Z,5.13
2022-10-10T14:12:02.667Z,5.53
2022-10-10T14:14:40.648Z,4.95
2022-10-10T14:17:10.477Z,5.93
2022-10-10T14:19:38.497Z,4.93
2022-10-10T14:22:05.523Z,4.63
2022-10-10T14:24:32.648Z,5.13
2022-10-10T14:27:27.092Z,4.93
2022-10-10T14:29:56.793Z,5.10
2022-10-10T14:32:24.628Z,6.72
2022-10-10T14:34:52.164Z,6.05
2022-10-10T14:37:23.700Z,5.93
2022-10-10T14:39:51.408Z,16.38
2022-10-10T14:42:19.967Z,6.93
2022-10-10T14:44:47.118Z,7.13
2022-10-10T14:47:22.891Z,8.10
2022-10-10T14:49:50.299Z,6.97
2022-10-10T14:52:17.446Z,8.95
2022-10-10T14:54:44.587Z,7.78
2022-10-10T14:57:15.088Z,6.90
2022-10-10T14:59:48.451Z,9.88
2022-10-10T15:02:18.807Z,6.07
2022-10-10T15:04:45.968Z,6.68
2022-10-10T15:07:14.725Z,9.18
2022-10-10T15:10:02.566Z,6.93
2022-10-10T15:12:32.143Z,6.43
2022-10-10T15:14:59.343Z,14.55
2022-10-10T15:17:27.366Z,6.65
2022-10-10T15:19:54.489Z,8.88
2022-10-10T15:22:21.809Z,7.50
2022-10-10T15:24:48.963Z,6.18
2022-10-10T15:27:16.107Z,6.30
2022-10-10T15:29:43.196Z,6.10
2022-10-10T15:32:10.418Z,6.10
2022-10-10T15:34:37.512Z,6.97
2022-10-10T15:37:04.741Z,7.70
2022-10-10T15:39:35.947Z,11.32
2022-10-10T15:42:09.570Z,6.03
2022-10-10T15:44:47.970Z,14.90
2022-10-10T15:47:16.530Z,9.23
2022-10-10T15:49:43.979Z,6.35
2022-10-10T15:52:11.346Z,8.40
2022-10-10T15:54:38.465Z,7.85
2022-10-10T15:57:05.609Z,6.03
2022-10-10T15:59:33.396Z,6.40
2022-10-10T16:02:01.672Z,6.25
2022-10-10T16:04:28.944Z,8.43
2022-10-10T16:09:43.646Z,9.85
2022-10-10T16:12:10.749Z,6.93
2022-10-10T16:14:37.785Z,7.80
2022-10-10T16:17:05.086Z,8.70
2022-10-10T16:19:32.164Z,13.52
2022-10-10T16:21:59.715Z,10.50
2022-10-10T16:24:26.864Z,18.35
2022-10-10T16:26:54.059Z,30.67
2022-10-10T16:29:21.173Z,10.52
2022-10-10T16:31:48.275Z,8.77
2022-10-10T16:34:16.212Z,9.13
2022-10-10T16:36:43.746Z,11.02
2022-10-10T16:39:12.621Z,7.85
2022-10-10T16:41:48.004Z,10.30
2022-10-10T16:44:16.372Z,9.60
2022-10-10T16:46:43.982Z,9.20
2022-10-10T16:49:13.220Z,10.20
2022-10-10T16:51:40.399Z,8.27
2022-10-10T16:54:07.777Z,12.18
2022-10-10T16:56:35.915Z,8.30
2022-10-10T16:59:03.867Z,8.82
2022-10-10T17:01:31.163Z,9.95
2022-10-10T17:04:00.306Z,8.40
2022-10-10T17:06:34.144Z,7.00
2022-10-10T17:09:03.340Z,9.18
2022-10-10T17:11:30.542Z,7.40
2022-10-10T17:13:57.836Z,6.63
2022-10-10T17:19:15.046Z,6.47
2022-10-10T17:21:42.384Z,6.20
2022-10-10T17:24:10.115Z,6.00
2022-10-10T17:26:37.502Z,6.10
2022-10-10T17:29:04.836Z,5.82
2022-10-10T17:31:32.201Z,6.20
2022-10-10T17:33:59.529Z,6.22
2022-10-10T17:36:27.971Z,5.63
2022-10-10T17:39:04.889Z,6.10
2022-10-10T17:41:33.631Z,6.20
2022-10-10T17:44:00.972Z,5.95
2022-10-10T17:46:34.887Z,5.50
2022-10-10T17:49:05.682Z,6.05
2022-10-10T17:51:33.106Z,6.40
2022-10-10T17:54:01.199Z,6.13
2022-10-10T17:56:29.037Z,5.40
2022-10-10T17:58:56.349Z,5.45
2022-10-10T18:01:23.709Z,5.43
2022-10-10T18:03:51.851Z,5.40
2022-10-10T18:06:22.527Z,5.28
2022-10-10T18:08:51.416Z,5.18
2022-10-10T18:11:22.128Z,5.22
2022-10-10T18:13:49.718Z,5.18
2022-10-10T18:16:20.144Z,4.90
2022-10-10T18:21:22.329Z,5.75
2022-10-10T18:23:50.059Z,5.85
2022-10-10T18:26:23.722Z,5.65
2022-10-10T18:28:54.160Z,5.82
2022-10-10T18:33:49.913Z,6.22
2022-10-10T18:36:20.530Z,6.22
2022-10-10T18:38:47.731Z,6.90
2022-10-10T18:41:18.189Z,6.40
2022-10-10T18:46:15.537Z,6.32
2022-10-10T18:48:43.392Z,6.35
2022-10-10T18:51:17.334Z,6.43
2022-10-10T18:53:46.467Z,6.50
2022-10-10T18:56:15.494Z,6.63
2022-10-10T18:58:43.254Z,6.18
2022-10-10T19:01:12.451Z,6.80
2022-10-10T19:03:40.762Z,6.68
2022-10-10T19:06:11.186Z,7.32
2022-10-10T19:11:07.256Z,6.63
2022-10-10T19:13:35.127Z,7.18
2022-10-10T19:16:07.212Z,7.10
2022-10-10T19:18:35.338Z,6.47
2022-10-10T19:21:04.904Z,7.35
2022-10-10T19:23:33.922Z,6.43
2022-10-10T19:26:07.307Z,7.05
2022-10-10T19:28:35.595Z,6.57
2022-10-10T19:31:08.673Z,6.80
2022-10-10T19:33:36.422Z,7.03
2022-10-10T19:36:06.093Z,7.10
2022-10-10T19:38:34.501Z,7.70
2022-10-10T19:41:02.564Z,6.88
2022-10-10T19:43:29.964Z,6.72
2022-10-10T19:45:57.090Z,6.45
2022-10-10T19:48:25.249Z,6.93
2022-10-10T19:50:54.107Z,6.90
2022-10-10T19:53:21.208Z,7.43
2022-10-10T19:55:59.127Z,7.28
2022-10-10T19:58:27.144Z,7.28
2022-10-10T20:00:54.623Z,7.10
2022-10-10T20:03:22.129Z,6.85
2022-10-10T20:05:49.474Z,7.43
2022-10-10T20:08:16.783Z,6.55
2022-10-10T20:10:44.874Z,6.50
2022-10-10T20:13:15.274Z,6.85
2022-10-10T20:18:10.734Z,6.10
2022-10-10T20:20:48.144Z,6.60
2022-10-10T20:23:18.170Z,6.90
2022-10-10T20:25:45.935Z,6.53
2022-10-10T20:28:15.399Z,6.30
2022-10-10T20:30:45.473Z,6.83
2022-10-10T20:33:12.650Z,7.45
2022-10-10T20:35:39.853Z,7.47
2022-10-10T20:38:11.067Z,6.55
2022-10-10T20:40:47.343Z,7.15
2022-10-10T20:43:16.585Z,6.95
2022-10-10T20:45:43.742Z,6.80
2022-10-10T20:48:11.028Z,6.47
2022-10-10T20:50:38.513Z,6.70
2022-10-10T20:53:06.694Z,6.93
2022-10-10T20:55:34.382Z,7.70
2022-10-10T20:58:01.587Z,6.68
2022-10-10T21:00:28.700Z,7.35
2022-10-10T21:02:56.643Z,7.75
2022-10-10T21:05:24.204Z,7.47
2022-10-10T21:07:51.259Z,7.65
2022-10-10T21:10:18.443Z,8.27
2022-10-10T21:12:46.076Z,7.82
2022-10-10T21:15:13.184Z,8.23
2022-10-10T21:17:40.550Z,7.75
2022-10-10T21:20:08.384Z,8.55
2022-10-10T21:22:35.667Z,7.57
2022-10-10T21:25:03.109Z,7.85
2022-10-10T21:27:30.227Z,8.70
2022-10-10T21:29:57.396Z,9.02
2022-10-10T21:32:24.646Z,8.25
2022-10-10T21:34:56.245Z,8.00
2022-10-10T21:37:23.649Z,9.15
2022-10-10T21:39:50.861Z,9.02
2022-10-10T21:42:17.914Z,10.02
2022-10-10T21:44:45.190Z,10.70
2022-10-10T21:47:12.337Z,10.23
2022-10-10T21:49:39.404Z,10.25
2022-10-10T21:52:06.583Z,10.65
2022-10-10T21:54:33.743Z,10.90
2022-10-10T21:57:01.007Z,11.45
2022-10-10T21:59:31.917Z,12.40
2022-10-10T22:01:59.175Z,11.77
2022-10-10T22:04:29.027Z,11.75
2022-10-10T22:06:56.498Z,11.57
2022-10-10T22:09:23.546Z,12.70
2022-10-10T22:11:50.996Z,13.18
2022-10-10T22:14:18.352Z,12.90
2022-10-10T22:16:45.677Z,12.43
2022-10-10T22:19:12.797Z,13.18
2022-10-10T22:21:40.088Z,13.82
2022-10-10T22:24:08.253Z,13.32
2022-10-10T22:26:35.930Z,13.00
2022-10-10T22:29:04.048Z,13.23
2022-10-10T22:31:31.209Z,13.20
2022-10-10T22:33:58.513Z,13.20
2022-10-10T22:36:25.784Z,14.30
2022-10-10T22:38:52.889Z,14.60
2022-10-10T22:41:20.085Z,14.63
2022-10-10T22:43:47.780Z,14.52
2022-10-10T22:46:14.826Z,14.73
2022-10-10T22:48:42.013Z,14.48
2022-10-10T22:51:12.965Z,14.18
2022-10-10T22:53:41.475Z,14.30
2022-10-10T22:56:09.666Z,14.98
2022-10-10T22:58:37.032Z,15.15
2022-10-10T23:01:15.137Z,14.23
2022-10-10T23:03:42.865Z,15.20
2022-10-10T23:06:10.066Z,15.75
2022-10-10T23:08:37.344Z,14.75
2022-10-10T23:11:04.967Z,15.60
2022-10-10T23:13:32.930Z,15.35
2022-10-10T23:16:00.103Z,15.48
2022-10-10T23:18:29.173Z,15.15
2022-10-10T23:20:56.816Z,14.88
2022-10-10T23:23:25.963Z,14.35
2022-10-10T23:25:53.045Z,14.85
2022-10-10T23:28:20.214Z,15.25
2022-10-10T23:30:48.512Z,14.98
2022-10-10T23:33:17.071Z,15.55
2022-10-10T23:35:44.205Z,14.38
2022-10-10T23:38:11.715Z,15.63
2022-10-10T23:40:38.847Z,15.95
2022-10-10T23:43:07.605Z,16.02
2022-10-10T23:45:34.892Z,17.15
2022-10-10T23:48:02.118Z,16.48
2022-10-10T23:50:29.737Z,16.45
2022-10-10T23:52:56.873Z,16.65
2022-10-10T23:55:24.349Z,16.75
2022-10-10T23:57:51.533Z,16.13
